Caribou Island, Canada
Current Conditions -  °F | °C
As of 4:00 PM on Thursday 23 Oct 2014 (Local Time) from CYXZ Reporting Station
Broken Clouds Broken Clouds  
Wind Chill: 54°   Ceiling: 33000
Heat Index: 54°   Visibility: 15mi
Dew Point: 37°   Wind: 10mph
Humidity: 54%   Direction: 200°SSW
Pressure: 30.05"   Gusts: NA
Location:  47.33°N, 85.83°W
Report Text: CYXZ 232000Z 20009KT 15SM BKN330 12/03 A3005 RMK CI5 SLP187
Loading
Personal Weather Stations






























Interactive Weather Map
Tropical Storm Tracking
New forecast layout! Learn more

10-Day Weather Forecast

Advertisements
Track Severe Weather on mobile